Time;durP1;ratioP1;P1;durP2;ratioP2;P2;SDS_P1;SDS_P2;PMS_P1;PMS_P2;Temp;Humidity;BMP_temperature;BMP_pressure;BME280_temperature;BME280_humidity;BME280_pressure;Samples;Min_cycle;Max_cycle;Signal;HPM_P1;HPM_P2
2023/04/14 00:01:49;;;;;;;8.07;2.80;;;5.90;99.90;;;;;;5034638;28;20128;-60
2023/04/14 00:04:15;;;;;;;16.88;3.80;;;5.90;99.90;;;;;;5050560;28;20041;-60
2023/04/14 00:06:41;;;;;;;12.98;3.45;;;5.90;99.90;;;;;;5050978;28;20041;-60
2023/04/14 00:09:06;;;;;;;10.05;2.70;;;5.90;99.90;;;;;;5052646;28;20067;-60
2023/04/14 00:11:32;;;;;;;8.15;2.42;;;5.80;99.90;;;;;;5050995;28;20044;-60
2023/04/14 00:14:00;;;;;;;11.15;3.72;;;5.80;99.90;;;;;;5051005;28;20152;-60
2023/04/14 00:16:25;;;;;;;7.82;2.83;;;5.80;99.90;;;;;;5033896;28;20053;-60
2023/04/14 00:18:51;;;;;;;16.00;4.00;;;5.80;99.90;;;;;;5050500;28;20170;-60
2023/04/14 00:21:17;;;;;;;6.53;3.00;;;5.70;99.90;;;;;;5033892;28;20037;-60
2023/04/14 00:23:42;;;;;;;9.38;2.88;;;5.70;99.90;;;;;;5050648;28;20039;-61
2023/04/14 00:26:08;;;;;;;12.35;2.85;;;5.70;99.90;;;;;;5051827;28;20032;-60
2023/04/14 00:28:34;;;;;;;9.40;3.00;;;5.60;99.90;;;;;;5050272;28;20125;-60
2023/04/14 00:30:59;;;;;;;10.40;2.85;;;5.60;99.90;;;;;;5050911;28;20540;-60
2023/04/14 00:33:25;;;;;;;10.48;2.53;;;5.70;99.90;;;;;;5049562;28;20036;-60
2023/04/14 00:35:51;;;;;;;8.98;2.80;;;5.60;99.90;;;;;;5051982;28;20119;-60
2023/04/14 00:38:17;;;;;;;10.05;3.03;;;5.60;99.90;;;;;;5050988;28;20072;-60
2023/04/14 00:40:43;;;;;;;13.18;3.55;;;5.60;99.90;;;;;;5050110;28;20136;-60
2023/04/14 00:43:08;;;;;;;10.57;3.05;;;5.60;99.90;;;;;;5050866;28;20513;-60
2023/04/14 00:45:46;;;;;;;10.10;2.70;;;5.60;99.90;;;;;;5050854;28;20053;-60
2023/04/14 00:48:14;;;;;;;12.13;3.40;;;5.60;99.90;;;;;;5050993;28;20044;-60
2023/04/14 00:50:40;;;;;;;10.52;3.33;;;5.60;99.90;;;;;;5033765;28;20052;-60
2023/04/14 00:53:06;;;;;;;6.80;2.65;;;5.50;99.90;;;;;;5050946;28;20058;-60
2023/04/14 00:55:32;;;;;;;13.07;3.38;;;5.50;99.90;;;;;;5050172;28;20072;-60
2023/04/14 00:58:00;;;;;;;8.43;2.70;;;5.50;99.90;;;;;;5050762;28;20044;-60
2023/04/14 01:00:26;;;;;;;9.98;3.15;;;5.50;99.90;;;;;;5050728;28;20049;-60
2023/04/14 01:02:52;;;;;;;15.23;3.28;;;5.50;99.90;;;;;;5035124;28;20033;-60
2023/04/14 01:05:17;;;;;;;13.13;3.72;;;5.50;99.90;;;;;;5054300;28;20099;-60
2023/04/14 01:07:45;;;;;;;14.80;3.30;;;5.40;99.90;;;;;;5054697;28;20128;-60
2023/04/14 01:10:11;;;;;;;10.60;3.15;;;5.40;99.90;;;;;;5054276;28;20045;-60
2023/04/14 01:12:42;;;;;;;10.48;3.13;;;5.40;99.90;;;;;;5055413;28;20051;-60
2023/04/14 01:15:11;;;;;;;7.70;3.08;;;5.30;99.90;;;;;;5053706;28;20044;-60
2023/04/14 01:18:18;;;;;;;7.80;2.60;;;5.30;99.90;;;;;;5053888;28;20547;-60
2023/04/14 01:20:48;;;;;;;12.25;3.38;;;5.30;99.90;;;;;;5035609;28;20045;-60
2023/04/14 01:23:30;;;;;;;12.43;3.22;;;5.30;99.90;;;;;;5036330;28;20170;-60
2023/04/14 01:26:16;;;;;;;10.45;2.85;;;5.30;99.90;;;;;;5029381;28;20048;-60
2023/04/14 01:29:02;;;;;;;10.68;3.15;;;5.30;99.90;;;;;;5054388;28;20047;-60
2023/04/14 01:31:31;;;;;;;9.60;2.95;;;5.30;99.90;;;;;;5053847;28;20052;-60
2023/04/14 01:34:12;;;;;;;9.55;2.85;;;5.30;99.90;;;;;;5054335;28;20465;-60
2023/04/14 01:36:42;;;;;;;10.25;3.10;;;5.30;99.90;;;;;;5053002;28;20052;-60
2023/04/14 01:39:13;;;;;;;11.38;3.00;;;5.20;99.90;;;;;;5054018;28;20056;-60
2023/04/14 01:41:43;;;;;;;10.15;3.55;;;5.20;99.90;;;;;;5035408;28;20151;-60
2023/04/14 01:44:11;;;;;;;8.98;2.97;;;5.20;99.90;;;;;;5054005;28;20083;-61
2023/04/14 01:46:38;;;;;;;9.52;3.53;;;5.10;99.90;;;;;;5036396;28;20041;-60
2023/04/14 01:49:04;;;;;;;9.43;3.10;;;5.10;99.90;;;;;;5053364;28;20434;-60
2023/04/14 01:51:32;;;;;;;7.43;3.10;;;5.10;99.90;;;;;;5053373;28;20161;-60
2023/04/14 01:54:00;;;;;;;13.32;3.72;;;5.10;99.90;;;;;;5037147;28;20094;-60
2023/04/14 01:56:26;;;;;;;11.20;3.17;;;5.00;99.90;;;;;;5035751;28;20036;-60
2023/04/14 01:58:55;;;;;;;9.68;3.15;;;5.00;99.90;;;;;;5055080;28;20032;-60
2023/04/14 02:01:21;;;;;;;9.82;3.28;;;5.00;99.90;;;;;;5036488;28;20087;-60
2023/04/14 02:03:48;;;;;;;13.18;3.50;;;4.90;99.90;;;;;;5052365;28;20090;-60
2023/04/14 02:06:16;;;;;;;10.77;3.70;;;4.90;99.90;;;;;;5053131;28;20045;-60
2023/04/14 02:08:42;;;;;;;10.20;3.65;;;4.80;99.90;;;;;;5052934;28;20485;-60
2023/04/14 02:11:11;;;;;;;9.18;2.97;;;4.80;99.90;;;;;;5069450;28;20041;-60
2023/04/14 02:13:39;;;;;;;11.63;4.45;;;4.80;99.90;;;;;;5052309;28;20041;-60
2023/04/14 02:16:08;;;;;;;8.50;3.40;;;4.80;99.90;;;;;;5036705;28;20087;-60
2023/04/14 02:18:36;;;;;;;10.63;3.20;;;4.70;99.90;;;;;;5051898;28;20047;-60
2023/04/14 02:21:03;;;;;;;10.05;3.05;;;4.70;99.90;;;;;;5053165;28;20459;-60
2023/04/14 02:23:30;;;;;;;10.77;2.70;;;4.70;99.90;;;;;;5052337;28;20041;-60
2023/04/14 02:26:13;;;;;;;13.10;3.25;;;4.70;99.90;;;;;;5052185;28;20045;-60
2023/04/14 02:28:51;;;;;;;11.77;3.15;;;4.70;99.90;;;;;;5052684;28;20056;-60
2023/04/14 02:31:22;;;;;;;8.20;3.08;;;4.70;99.90;;;;;;5053202;28;20398;-60
2023/04/14 02:33:54;;;;;;;8.00;2.97;;;4.80;99.90;;;;;;5069688;28;20535;-60
2023/04/14 02:36:35;;;;;;;9.13;2.78;;;4.70;99.90;;;;;;5052535;28;20094;-60
2023/04/14 02:39:09;;;;;;;11.23;4.18;;;4.80;99.90;;;;;;5069117;28;20041;-60
2023/04/14 02:41:37;;;;;;;10.75;3.15;;;4.80;99.90;;;;;;5051954;28;20171;-60
2023/04/14 02:44:23;;;;;;;9.48;3.28;;;4.80;99.90;;;;;;5052772;28;20048;-60
2023/04/14 02:47:02;;;;;;;10.23;3.05;;;4.80;99.90;;;;;;5035209;28;20037;-60
2023/04/14 02:49:33;;;;;;;7.13;2.83;;;4.80;99.90;;;;;;5052169;28;20041;-60
2023/04/14 02:51:59;;;;;;;7.50;2.90;;;4.80;99.90;;;;;;5052000;28;20127;-60
2023/04/14 02:54:26;;;;;;;8.38;3.03;;;4.80;99.90;;;;;;5051661;28;20049;-60
2023/04/14 02:56:53;;;;;;;8.18;2.53;;;4.80;99.90;;;;;;5054051;28;20055;-60
2023/04/14 02:59:21;;;;;;;9.13;2.80;;;4.70;99.90;;;;;;5051675;28;20051;-60
2023/04/14 03:01:49;;;;;;;10.23;2.40;;;4.70;99.90;;;;;;5053825;28;20037;-60
2023/04/14 03:04:17;;;;;;;8.52;2.75;;;4.60;99.90;;;;;;5052247;28;20041;-60
2023/04/14 03:06:43;;;;;;;8.57;2.78;;;4.60;99.90;;;;;;5052485;28;20103;-60
2023/04/14 03:09:10;;;;;;;8.95;2.83;;;4.60;99.90;;;;;;5052568;28;20041;-60
2023/04/14 03:11:37;;;;;;;9.57;2.85;;;4.60;99.90;;;;;;5053121;28;20077;-60
2023/04/14 03:14:04;;;;;;;6.85;3.13;;;4.70;99.90;;;;;;5051499;28;20088;-60
2023/04/14 03:16:32;;;;;;;8.45;2.80;;;4.60;99.90;;;;;;5051451;28;20040;-60
2023/04/14 03:19:00;;;;;;;11.55;3.05;;;4.60;99.90;;;;;;5053378;28;20036;-60
2023/04/14 03:21:28;;;;;;;8.93;2.97;;;4.60;99.90;;;;;;5050673;28;20049;-60
2023/04/14 03:23:55;;;;;;;11.00;3.33;;;4.60;99.90;;;;;;5052143;28;20064;-60
2023/04/14 03:26:23;;;;;;;9.65;2.83;;;4.50;99.90;;;;;;5051819;28;20118;-60
2023/04/14 03:28:52;;;;;;;7.38;2.88;;;4.60;99.90;;;;;;5051097;28;20064;-60
2023/04/14 03:31:19;;;;;;;7.10;2.58;;;4.50;99.90;;;;;;5051859;28;20041;-60
2023/04/14 03:33:54;;;;;;;8.02;3.10;;;4.50;99.90;;;;;;5051859;28;20052;-60
2023/04/14 03:36:21;;;;;;;10.07;2.78;;;4.50;99.90;;;;;;5050547;28;20482;-60
2023/04/14 03:38:48;;;;;;;8.90;3.05;;;4.50;99.90;;;;;;5051748;28;20049;-60
2023/04/14 03:41:18;;;;;;;8.07;2.72;;;4.40;99.90;;;;;;5067495;28;20061;-60
2023/04/14 03:43:46;;;;;;;10.90;4.15;;;4.50;99.90;;;;;;5068175;28;20128;-60
2023/04/14 03:46:12;;;;;;;11.10;2.92;;;4.40;99.90;;;;;;5051313;28;20041;-60
2023/04/14 03:48:41;;;;;;;7.80;2.75;;;4.40;99.90;;;;;;5049816;28;20048;-60
2023/04/14 03:51:12;;;;;;;12.05;3.13;;;4.40;99.90;;;;;;5052991;28;20048;-60
2023/04/14 03:53:40;;;;;;;9.88;2.90;;;4.40;99.90;;;;;;5052242;28;20040;-60
2023/04/14 03:56:09;;;;;;;7.60;2.97;;;4.40;99.90;;;;;;5052057;28;20041;-60
2023/04/14 03:58:35;;;;;;;10.40;3.10;;;4.50;99.90;;;;;;5034180;28;20055;-60
2023/04/14 04:01:02;;;;;;;10.15;3.28;;;4.40;99.90;;;;;;5052470;28;20041;-60
2023/04/14 04:03:28;;;;;;;9.13;3.28;;;4.40;99.90;;;;;;5050036;28;20041;-60
2023/04/14 04:05:54;;;;;;;9.05;3.55;;;4.40;99.90;;;;;;5050900;28;20079;-60
2023/04/14 04:08:22;;;;;;;11.98;4.57;;;4.40;99.90;;;;;;5050707;28;20521;-60
2023/04/14 04:10:48;;;;;;;10.02;3.10;;;4.40;99.90;;;;;;5050432;28;20037;-60
2023/04/14 04:13:16;;;;;;;12.23;3.92;;;4.40;99.90;;;;;;5052442;28;20094;-60
2023/04/14 04:15:44;;;;;;;10.02;3.55;;;4.40;99.90;;;;;;5052022;28;20115;-60
2023/04/14 04:18:14;;;;;;;12.57;3.15;;;4.30;99.90;;;;;;5033712;28;20470;-60
2023/04/14 04:20:40;;;;;;;13.32;3.15;;;4.30;99.90;;;;;;5034182;28;20033;-60
2023/04/14 04:23:08;;;;;;;10.18;3.10;;;4.20;99.90;;;;;;5034771;28;20060;-60
2023/04/14 04:25:38;;;;;;;9.02;2.85;;;4.20;99.90;;;;;;5050819;28;20043;-60
2023/04/14 04:28:04;;;;;;;10.43;3.45;;;4.20;99.90;;;;;;5050474;28;20033;-60
2023/04/14 04:30:32;;;;;;;6.97;3.10;;;4.10;99.90;;;;;;5032600;28;20052;-60
2023/04/14 04:33:00;;;;;;;11.43;3.97;;;4.00;99.90;;;;;;5034425;28;20041;-60
2023/04/14 04:35:27;;;;;;;7.85;3.78;;;4.00;99.90;;;;;;5033709;28;20042;-60
2023/04/14 04:37:55;;;;;;;11.20;4.05;;;3.90;99.90;;;;;;5033334;28;20120;-59
2023/04/14 04:40:21;;;;;;;10.52;3.30;;;3.90;99.90;;;;;;5049982;28;20083;-60
2023/04/14 04:42:46;;;;;;;8.07;3.47;;;3.80;99.90;;;;;;5051796;28;20436;-60
2023/04/14 04:45:16;;;;;;;7.88;2.95;;;3.80;99.90;;;;;;5050217;28;20040;-60
2023/04/14 04:47:42;;;;;;;10.73;3.35;;;3.80;99.90;;;;;;5033740;28;20052;-60
2023/04/14 04:50:08;;;;;;;9.82;3.55;;;3.80;99.90;;;;;;5051876;28;20033;-60
2023/04/14 04:52:34;;;;;;;15.00;3.97;;;3.70;99.90;;;;;;5049613;28;20444;-60
2023/04/14 04:54:59;;;;;;;8.43;3.83;;;3.70;99.90;;;;;;5051772;28;20037;-60
2023/04/14 04:57:25;;;;;;;9.05;3.47;;;3.70;99.90;;;;;;5050141;28;20037;-60
2023/04/14 04:59:51;;;;;;;16.08;3.70;;;3.70;99.90;;;;;;5066784;28;20044;-60
2023/04/14 05:02:16;;;;;;;11.60;4.70;;;3.80;99.90;;;;;;5051697;28;20098;-60
2023/04/14 05:04:42;;;;;;;8.38;3.40;;;3.80;99.90;;;;;;5051452;28;20033;-60
2023/04/14 05:07:07;;;;;;;10.18;4.13;;;3.80;99.90;;;;;;5050894;28;20033;-60
2023/04/14 05:09:33;;;;;;;10.90;3.95;;;3.80;99.90;;;;;;5051059;28;20033;-60
2023/04/14 05:11:59;;;;;;;10.82;3.70;;;3.80;99.90;;;;;;5033974;28;20090;-60
2023/04/14 05:14:25;;;;;;;10.70;3.78;;;3.80;99.90;;;;;;5048992;28;20049;-60
2023/04/14 05:16:50;;;;;;;8.63;3.35;;;3.90;99.90;;;;;;5050715;28;20037;-60
2023/04/14 05:19:16;;;;;;;10.50;3.03;;;3.90;99.90;;;;;;5051502;28;20041;-60
2023/04/14 05:21:42;;;;;;;15.77;4.47;;;3.90;99.90;;;;;;5066153;28;20496;-60
2023/04/14 05:24:08;;;;;;;8.80;2.83;;;4.00;99.90;;;;;;5050545;28;20559;-60
2023/04/14 05:26:33;;;;;;;12.88;3.95;;;4.00;99.90;;;;;;5066308;28;20060;-60
2023/04/14 05:28:59;;;;;;;6.80;2.83;;;4.10;99.90;;;;;;5049557;28;20033;-60
2023/04/14 05:31:25;;;;;;;10.10;3.75;;;4.10;99.90;;;;;;5033122;28;20394;-60
2023/04/14 05:33:50;;;;;;;9.85;4.72;;;4.10;99.90;;;;;;5049877;28;20048;-60
2023/04/14 05:36:16;;;;;;;12.52;5.65;;;4.20;99.90;;;;;;5050019;28;20497;-60
2023/04/14 05:38:42;;;;;;;7.78;4.00;;;4.30;99.90;;;;;;5049985;28;20383;-60
2023/04/14 05:41:08;;;;;;;10.57;4.18;;;4.30;99.90;;;;;;5049429;28;20055;-60
2023/04/14 05:43:34;;;;;;;12.60;4.70;;;4.40;99.90;;;;;;5050911;28;20486;-60
2023/04/14 05:46:00;;;;;;;12.23;4.22;;;4.50;99.90;;;;;;5050202;28;20045;-60
2023/04/14 05:48:28;;;;;;;10.50;2.85;;;4.50;99.90;;;;;;5048615;28;20490;-60
2023/04/14 05:50:54;;;;;;;13.55;3.03;;;4.60;99.90;;;;;;5037305;28;20120;-60
2023/04/14 05:53:19;;;;;;;10.48;3.60;;;4.60;99.90;;;;;;5053323;28;20116;-60
2023/04/14 05:55:47;;;;;;;7.43;3.17;;;4.70;99.90;;;;;;5053279;28;20037;-60
2023/04/14 05:58:13;;;;;;;10.88;3.67;;;4.70;99.90;;;;;;5054390;28;20406;-60
2023/04/14 06:00:39;;;;;;;8.40;3.20;;;4.80;99.90;;;;;;5052202;28;20049;-60
2023/04/14 06:03:05;;;;;;;7.60;3.25;;;4.90;99.90;;;;;;5052776;28;20048;-60
2023/04/14 06:05:32;;;;;;;8.77;3.60;;;4.90;99.90;;;;;;5053302;28;20158;-60
2023/04/14 06:07:58;;;;;;;10.07;3.03;;;5.00;99.90;;;;;;5053230;28;20037;-60
2023/04/14 06:10:23;;;;;;;11.35;3.17;;;5.10;99.90;;;;;;5052046;28;20040;-60
2023/04/14 06:12:49;;;;;;;9.52;3.40;;;5.20;99.90;;;;;;5053389;28;20048;-60
2023/04/14 06:15:15;;;;;;;7.10;3.13;;;5.20;99.90;;;;;;5052126;28;20064;-60
2023/04/14 06:17:41;;;;;;;7.75;3.47;;;5.30;99.90;;;;;;5041932;28;20045;-60
2023/04/14 06:20:07;;;;;;;9.57;3.42;;;5.40;99.90;;;;;;5028776;28;20045;-60
2023/04/14 06:22:33;;;;;;;9.60;3.00;;;5.50;99.90;;;;;;5042941;28;20398;-60
2023/04/14 06:24:58;;;;;;;9.35;3.85;;;5.60;99.90;;;;;;5050407;28;20033;-60
2023/04/14 06:27:24;;;;;;;12.00;3.60;;;5.70;99.90;;;;;;5040570;28;20040;-60
2023/04/14 06:29:51;;;;;;;12.85;3.85;;;5.80;99.90;;;;;;5052975;28;20119;-60
2023/04/14 06:32:17;;;;;;;7.22;3.05;;;5.90;99.90;;;;;;5051532;28;20045;-60
2023/04/14 06:34:44;;;;;;;10.65;3.53;;;6.00;99.90;;;;;;5054033;28;20069;-60
2023/04/14 06:37:09;;;;;;;12.23;3.22;;;6.10;99.90;;;;;;5052272;28;20465;-60
2023/04/14 06:39:35;;;;;;;7.72;3.13;;;6.20;99.90;;;;;;5047984;28;20194;-60
2023/04/14 06:42:01;;;;;;;9.25;3.25;;;6.30;99.90;;;;;;5066733;28;20056;-60
2023/04/14 06:44:27;;;;;;;9.85;3.60;;;6.30;99.90;;;;;;5048454;28;20481;-60
2023/04/14 06:46:52;;;;;;;6.80;3.28;;;6.50;99.90;;;;;;5050045;28;20048;-60
2023/04/14 06:49:20;;;;;;;9.82;3.75;;;6.50;99.90;;;;;;5066175;28;20040;-60
2023/04/14 06:51:45;;;;;;;13.52;3.55;;;6.60;99.90;;;;;;5048712;28;20049;-60
2023/04/14 06:54:11;;;;;;;9.27;3.85;;;6.70;99.90;;;;;;5033300;28;20139;-60
2023/04/14 06:56:36;;;;;;;9.57;3.90;;;6.80;99.90;;;;;;5032783;28;20084;-60
2023/04/14 06:59:02;;;;;;;11.98;3.92;;;6.90;99.90;;;;;;5049869;28;20119;-60
2023/04/14 07:01:28;;;;;;;9.55;3.50;;;6.90;99.90;;;;;;5055185;28;20602;-60
2023/04/14 07:03:53;;;;;;;9.68;4.25;;;7.00;99.90;;;;;;5049550;28;20543;-59
2023/04/14 07:06:19;;;;;;;8.50;3.40;;;7.10;99.90;;;;;;5049822;28;20047;-60
2023/04/14 07:08:45;;;;;;;8.95;3.97;;;7.20;99.90;;;;;;5050882;28;20062;-60
2023/04/14 07:11:11;;;;;;;9.02;3.72;;;7.30;99.90;;;;;;5050774;28;20037;-60
2023/04/14 07:13:38;;;;;;;11.38;4.38;;;7.30;99.90;;;;;;5064135;28;20041;-60
2023/04/14 07:16:07;;;;;;;9.43;3.70;;;7.50;99.90;;;;;;5062796;28;20045;-60
2023/04/14 07:18:34;;;;;;;12.57;4.30;;;7.60;99.90;;;;;;5049644;28;20452;-60
2023/04/14 07:21:00;;;;;;;10.90;4.13;;;7.70;99.90;;;;;;5048790;28;20490;-60
2023/04/14 07:23:26;;;;;;;8.93;3.42;;;7.80;99.90;;;;;;5032769;28;20402;-60
2023/04/14 07:25:57;;;;;;;11.60;4.60;;;7.90;99.90;;;;;;5032992;28;20048;-60
2023/04/14 07:28:25;;;;;;;8.25;4.50;;;8.00;99.90;;;;;;5036432;28;20045;-61
2023/04/14 07:30:52;;;;;;;5.88;2.85;;;8.10;99.90;;;;;;5044095;28;20151;-61
2023/04/14 07:33:18;;;;;;;10.38;3.67;;;8.20;99.90;;;;;;5049318;28;20047;-61
2023/04/14 07:35:54;;;;;;;9.15;3.45;;;8.20;99.90;;;;;;5031879;28;20107;-61
2023/04/14 07:38:20;;;;;;;11.48;3.85;;;8.30;99.90;;;;;;5047963;28;20045;-61
2023/04/14 07:40:45;;;;;;;9.55;3.70;;;8.40;99.90;;;;;;5045357;28;20040;-62
2023/04/14 07:43:12;;;;;;;10.07;3.55;;;8.50;99.90;;;;;;5049340;28;20794;-62
2023/04/14 07:45:38;;;;;;;9.88;3.83;;;8.60;99.90;;;;;;5049904;28;20048;-61
2023/04/14 07:48:04;;;;;;;8.50;3.65;;;8.60;99.90;;;;;;5058248;28;20072;-61
2023/04/14 07:50:30;;;;;;;10.32;4.47;;;8.70;99.90;;;;;;5044324;28;20033;-61
2023/04/14 07:52:56;;;;;;;7.10;3.53;;;8.80;99.90;;;;;;5048388;28;20456;-61
2023/04/14 07:55:21;;;;;;;9.20;3.13;;;8.90;99.90;;;;;;5047471;28;20071;-61
2023/04/14 07:57:47;;;;;;;10.70;3.67;;;9.00;99.90;;;;;;5048489;28;20132;-61
2023/04/14 08:00:13;;;;;;;8.45;3.53;;;9.10;99.90;;;;;;5048560;28;20073;-61
2023/04/14 08:02:39;;;;;;;8.25;3.00;;;9.30;99.90;;;;;;5048461;28;20045;-61
2023/04/14 08:05:05;;;;;;;11.65;3.17;;;9.40;99.90;;;;;;5031185;28;20116;-61
2023/04/14 08:07:31;;;;;;;10.48;2.83;;;9.50;99.90;;;;;;5047897;28;20083;-61
2023/04/14 08:09:58;;;;;;;7.47;3.00;;;9.50;99.90;;;;;;5030803;28;20535;-62
2023/04/14 08:12:24;;;;;;;9.00;3.38;;;9.60;99.90;;;;;;5046424;28;20074;-61
2023/04/14 08:14:55;;;;;;;10.25;3.20;;;9.70;99.90;;;;;;5031579;28;20409;-61
2023/04/14 08:17:24;;;;;;;6.53;3.10;;;9.80;99.90;;;;;;5048771;28;20052;-61
2023/04/14 08:19:50;;;;;;;8.88;3.25;;;9.90;99.90;;;;;;5032223;28;20076;-61
2023/04/14 08:22:16;;;;;;;10.13;2.88;;;10.00;99.90;;;;;;5041677;28;20470;-61
2023/04/14 08:24:41;;;;;;;7.65;2.47;;;10.10;99.90;;;;;;5046106;28;20452;-61
2023/04/14 08:27:07;;;;;;;9.35;2.72;;;10.10;99.90;;;;;;5046997;28;20028;-61
2023/04/14 08:29:33;;;;;;;9.27;2.67;;;10.20;99.90;;;;;;5046594;28;20106;-61
2023/04/14 08:31:58;;;;;;;8.75;2.67;;;10.30;99.90;;;;;;5048167;28;20045;-61
2023/04/14 08:34:24;;;;;;;8.25;3.53;;;10.40;99.90;;;;;;5047549;28;20041;-61
2023/04/14 08:36:50;;;;;;;11.57;2.97;;;10.50;99.90;;;;;;5047437;28;20075;-62
2023/04/14 08:39:15;;;;;;;9.00;2.80;;;10.60;99.90;;;;;;5046995;28;20045;-61
2023/04/14 08:41:41;;;;;;;8.27;2.53;;;10.60;99.90;;;;;;5063205;28;20083;-61
2023/04/14 08:44:07;;;;;;;9.52;2.55;;;10.70;99.90;;;;;;5047307;28;20040;-62
2023/04/14 08:46:34;;;;;;;10.40;2.58;;;10.80;99.90;;;;;;5046630;28;20036;-61
2023/04/14 08:49:06;;;;;;;7.72;2.88;;;10.80;99.90;;;;;;5045361;28;20039;-61
2023/04/14 08:51:37;;;;;;;8.80;2.88;;;10.90;99.90;;;;;;5044555;28;20041;-61
2023/04/14 08:54:06;;;;;;;12.15;3.63;;;11.00;99.90;;;;;;5064249;28;20041;-61
2023/04/14 08:56:37;;;;;;;10.05;2.63;;;11.20;99.90;;;;;;5046651;28;20057;-61
2023/04/14 08:59:06;;;;;;;7.60;2.38;;;11.20;99.90;;;;;;5047169;28;20497;-61
2023/04/14 09:01:33;;;;;;;9.90;2.70;;;11.30;99.90;;;;;;5044936;28;20489;-61
2023/04/14 09:04:02;;;;;;;5.78;2.33;;;11.30;99.90;;;;;;5047816;28;20037;-61
2023/04/14 09:06:28;;;;;;;8.52;2.40;;;11.30;99.90;;;;;;5048705;28;20044;-60
2023/04/14 09:08:54;;;;;;;8.35;2.67;;;11.40;99.90;;;;;;5033634;28;20037;-60
2023/04/14 09:11:20;;;;;;;11.25;2.35;;;11.50;99.90;;;;;;5049479;28;20041;-61
2023/04/14 09:13:48;;;;;;;10.10;2.35;;;11.60;99.90;;;;;;5049688;28;20118;-60
2023/04/14 09:16:16;;;;;;;7.63;2.70;;;11.70;99.90;;;;;;5050631;28;20133;-61
2023/04/14 09:18:42;;;;;;;9.95;2.40;;;11.90;99.90;;;;;;5050025;28;20460;-60
2023/04/14 09:21:11;;;;;;;10.82;2.20;;;12.00;99.90;;;;;;5033235;28;20051;-61
2023/04/14 09:23:40;;;;;;;10.82;2.78;;;12.00;99.90;;;;;;5051251;28;20563;-61
2023/04/14 09:26:08;;;;;;;6.90;2.03;;;12.00;99.90;;;;;;5036476;28;20040;-61
2023/04/14 09:28:34;;;;;;;12.43;2.97;;;12.00;99.90;;;;;;5053693;28;20040;-63
2023/04/14 09:31:01;;;;;;;6.78;2.50;;;12.10;99.90;;;;;;5053708;28;20076;-61
2023/04/14 09:33:27;;;;;;;7.43;2.40;;;12.10;99.90;;;;;;5051378;28;20040;-61
2023/04/14 09:35:53;;;;;;;10.25;3.08;;;12.20;99.90;;;;;;5054147;28;20040;-61
2023/04/14 09:38:36;;;;;;;7.57;2.28;;;12.30;99.90;;;;;;5053940;28;20094;-62
2023/04/14 09:41:04;;;;;;;8.60;2.85;;;12.30;99.90;;;;;;5054524;28;20049;-61
2023/04/14 09:43:29;;;;;;;9.93;2.75;;;12.10;99.90;;;;;;5053750;28;20390;-61
2023/04/14 09:45:56;;;;;;;8.65;2.30;;;11.90;99.90;;;;;;5055439;28;20033;-61
2023/04/14 09:48:23;;;;;;;10.90;3.28;;;11.90;99.90;;;;;;5052429;28;20474;-61
2023/04/14 09:50:58;;;;;;;13.65;2.72;;;12.10;99.90;;;;;;5054095;28;20124;-61
2023/04/14 09:53:26;;;;;;;8.13;2.22;;;12.30;99.90;;;;;;5070288;28;20033;-61
2023/04/14 09:55:52;;;;;;;5.82;2.55;;;12.40;99.90;;;;;;5036389;28;20120;-61
2023/04/14 09:58:21;;;;;;;7.13;2.05;;;12.50;99.90;;;;;;5070285;28;20116;-61
2023/04/14 10:00:47;;;;;;;7.30;2.38;;;12.50;99.90;;;;;;5053659;28;20116;-61
2023/04/14 10:03:12;;;;;;;10.40;2.63;;;12.50;99.90;;;;;;5054047;28;20069;-61
2023/04/14 10:05:38;;;;;;;5.50;1.80;;;12.50;99.90;;;;;;5052846;28;20480;-61
2023/04/14 10:08:05;;;;;;;6.68;1.75;;;12.70;99.90;;;;;;5053073;28;20072;-61
2023/04/14 10:10:31;;;;;;;5.47;2.13;;;12.80;99.90;;;;;;5053232;28;20498;-61
2023/04/14 10:12:59;;;;;;;8.73;1.88;;;12.90;99.90;;;;;;5054777;28;20056;-61
2023/04/14 10:15:26;;;;;;;6.03;2.05;;;13.00;99.30;;;;;;5053187;28;20505;-61
2023/04/14 10:17:51;;;;;;;6.93;1.73;;;12.90;98.90;;;;;;5053323;28;20041;-61
2023/04/14 10:20:17;;;;;;;6.32;1.88;;;13.00;98.20;;;;;;5052947;28;20041;-61
2023/04/14 10:22:43;;;;;;;7.10;2.00;;;13.10;97.80;;;;;;5052115;28;20033;-61
2023/04/14 10:25:10;;;;;;;6.35;2.13;;;13.20;97.40;;;;;;5036620;28;20048;-61
2023/04/14 10:27:37;;;;;;;6.70;2.13;;;13.10;97.10;;;;;;5053748;28;20071;-61
2023/04/14 10:30:05;;;;;;;6.55;2.63;;;12.90;96.40;;;;;;5053669;28;20037;-61
2023/04/14 10:32:35;;;;;;;8.98;2.15;;;12.80;96.60;;;;;;5052383;28;20517;-61
2023/04/14 10:35:07;;;;;;;4.82;1.65;;;12.90;96.80;;;;;;5069543;28;20041;-61
2023/04/14 10:37:34;;;;;;;6.97;1.60;;;12.90;96.90;;;;;;5051827;28;20075;-61
2023/04/14 10:40:05;;;;;;;7.03;1.80;;;13.00;96.00;;;;;;5052887;28;20043;-61
2023/04/14 10:43:01;;;;;;;4.90;1.77;;;12.80;95.90;;;;;;5068799;28;20143;-61
2023/04/14 10:45:26;;;;;;;5.10;1.83;;;13.00;95.50;;;;;;5026512;28;20084;-61
2023/04/14 10:47:54;;;;;;;5.05;1.83;;;13.00;95.80;;;;;;5052753;28;20473;-61
2023/04/14 10:50:23;;;;;;;5.68;1.92;;;13.10;94.70;;;;;;5052801;28;20033;-61
2023/04/14 10:52:54;;;;;;;8.10;2.00;;;13.20;94.50;;;;;;5053040;28;20127;-61
2023/04/14 10:55:26;;;;;;;7.78;1.65;;;13.00;93.40;;;;;;5053459;28;20041;-61
2023/04/14 10:58:03;;;;;;;5.32;1.60;;;12.90;93.80;;;;;;5053303;28;20363;-61
2023/04/14 11:00:32;;;;;;;6.68;1.73;;;12.90;93.90;;;;;;5052015;28;20482;-61
2023/04/14 11:03:03;;;;;;;7.15;1.65;;;12.80;94.20;;;;;;5052544;28;20037;-61
2023/04/14 11:05:32;;;;;;;6.00;1.60;;;12.80;93.90;;;;;;5034498;28;20082;-61
2023/04/14 11:08:00;;;;;;;5.88;1.75;;;12.80;94.30;;;;;;5052644;28;20493;-61
2023/04/14 11:10:29;;;;;;;5.93;1.90;;;12.80;94.50;;;;;;5051772;28;20044;-60
2023/04/14 11:13:05;;;;;;;6.90;2.35;;;12.70;94.30;;;;;;5052991;28;20052;-61
2023/04/14 11:15:50;;;;;;;6.72;2.33;;;12.80;94.10;;;;;;5051649;28;20045;-61
2023/04/14 11:18:33;;;;;;;5.97;1.85;;;13.10;94.10;;;;;;5051779;28;20037;-61
2023/04/14 11:21:06;;;;;;;6.47;2.13;;;13.30;93.90;;;;;;5052024;28;20529;-61
2023/04/14 11:23:36;;;;;;;7.30;1.70;;;13.30;93.70;;;;;;5051645;28;20041;-61
2023/04/14 11:26:04;;;;;;;6.05;1.85;;;13.30;94.00;;;;;;5051465;28;20041;-61
2023/04/14 11:28:35;;;;;;;7.68;2.28;;;13.40;93.80;;;;;;5051483;28;20036;-61
2023/04/14 11:31:03;;;;;;;5.80;2.30;;;13.60;93.50;;;;;;5035050;28;20493;-61
2023/04/14 11:33:35;;;;;;;4.55;1.90;;;13.80;93.30;;;;;;5050781;28;20079;-61
2023/04/14 11:36:05;;;;;;;8.63;2.40;;;13.70;92.50;;;;;;5052132;28;20045;-61
2023/04/14 11:38:34;;;;;;;8.13;1.75;;;13.80;91.90;;;;;;5051192;28;20048;-61
2023/04/14 11:41:01;;;;;;;7.32;1.77;;;13.90;92.00;;;;;;5051925;28;20433;-61
2023/04/14 11:43:31;;;;;;;5.60;1.90;;;14.10;92.50;;;;;;5051014;28;20128;-61
2023/04/14 11:45:59;;;;;;;5.63;1.98;;;14.30;92.50;;;;;;5051345;28;20045;-61
2023/04/14 11:48:27;;;;;;;10.82;2.75;;;14.40;92.40;;;;;;5050332;28;20532;-61
2023/04/14 11:50:53;;;;;;;6.10;2.40;;;14.60;91.90;;;;;;5068319;28;20045;-61
2023/04/14 11:53:18;;;;;;;7.55;2.17;;;14.70;91.00;;;;;;5051254;28;20041;-61
2023/04/14 11:55:50;;;;;;;6.75;2.63;;;14.60;90.30;;;;;;5050546;28;20383;-61
2023/04/14 11:58:25;;;;;;;8.13;2.30;;;14.60;90.60;;;;;;5051055;28;20048;-61
2023/04/14 12:00:52;;;;;;;8.48;2.47;;;14.60;90.50;;;;;;5051911;28;20564;-61
2023/04/14 12:03:19;;;;;;;8.70;3.85;;;14.70;89.20;;;;;;5034500;28;20033;-61
2023/04/14 12:05:44;;;;;;;7.20;2.78;;;14.70;90.10;;;;;;5052536;28;20401;-61
2023/04/14 12:08:11;;;;;;;5.07;2.22;;;14.60;90.00;;;;;;5050532;28;20037;-61
2023/04/14 12:10:39;;;;;;;7.10;2.17;;;14.50;88.90;;;;;;5050551;28;20091;-61
2023/04/14 12:13:10;;;;;;;6.35;2.20;;;14.60;90.00;;;;;;5051131;28;20045;-60
2023/04/14 12:15:39;;;;;;;8.77;2.38;;;14.80;89.40;;;;;;5050133;28;20090;-61
2023/04/14 12:18:18;;;;;;;5.68;2.20;;;15.00;86.20;;;;;;5034573;28;20051;-61
2023/04/14 12:20:59;;;;;;;6.47;2.60;;;15.20;86.40;;;;;;5050850;28;20052;-61
2023/04/14 12:23:25;;;;;;;6.50;1.52;;;15.40;85.30;;;;;;5049685;28;20074;-61
2023/04/14 12:25:51;;;;;;;8.65;2.58;;;15.30;84.90;;;;;;5052397;28;20044;-61
2023/04/14 12:28:24;;;;;;;4.53;1.67;;;15.10;83.80;;;;;;5050774;28;20124;-61
2023/04/14 12:31:01;;;;;;;4.85;1.90;;;14.90;83.40;;;;;;5050213;28;20116;-61
2023/04/14 12:33:27;;;;;;;6.82;2.03;;;14.60;82.60;;;;;;5050276;28;20041;-61
2023/04/14 12:35:59;;;;;;;6.13;2.08;;;14.40;83.40;;;;;;5067118;28;20037;-61
2023/04/14 12:38:27;;;;;;;6.20;1.88;;;14.40;83.80;;;;;;5050306;28;20043;-61
2023/04/14 12:40:53;;;;;;;6.03;1.80;;;14.60;84.60;;;;;;5034425;28;20474;-61
2023/04/14 12:43:30;;;;;;;5.35;1.90;;;14.80;82.80;;;;;;5050911;28;20106;-61
2023/04/14 12:45:57;;;;;;;4.70;1.70;;;15.00;81.90;;;;;;5052082;28;20029;-61
2023/04/14 12:48:47;;;;;;;6.13;1.60;;;15.00;81.20;;;;;;5050483;28;20102;-61
2023/04/14 12:51:18;;;;;;;7.00;1.50;;;15.10;79.50;;;;;;5033343;28;20037;-61
2023/04/14 12:53:45;;;;;;;7.28;1.80;;;14.80;79.00;;;;;;5051645;28;20498;-61
2023/04/14 12:56:21;;;;;;;4.47;1.58;;;14.70;79.60;;;;;;5050671;28;20064;-61